sensor_id;sensor_type;location;lat;lon;timestamp;P1;durP1;ratioP1;P2;durP2;ratioP2
595;SDS011;19946;49.306;11.350;2023-08-30T00:02:58;10.43;;;10.23;;
595;SDS011;19946;49.306;11.350;2023-08-30T00:06:02;6.27;;;6.17;;
595;SDS011;19946;49.306;11.350;2023-08-30T00:09:03;7.00;;;6.90;;
595;SDS011;19946;49.306;11.350;2023-08-30T00:12:04;3.67;;;3.67;;
595;SDS011;19946;49.306;11.350;2023-08-30T00:15:05;5.20;;;5.20;;
595;SDS011;19946;49.306;11.350;2023-08-30T00:18:05;6.70;;;6.60;;
595;SDS011;19946;49.306;11.350;2023-08-30T00:21:06;5.87;;;5.80;;
595;SDS011;19946;49.306;11.350;2023-08-30T00:24:07;4.30;;;4.30;;
595;SDS011;19946;49.306;11.350;2023-08-30T00:27:07;5.83;;;5.77;;
595;SDS011;19946;49.306;11.350;2023-08-30T00:30:07;4.60;;;4.60;;
595;SDS011;19946;49.306;11.350;2023-08-30T00:33:09;4.90;;;4.90;;
595;SDS011;19946;49.306;11.350;2023-08-30T00:36:09;6.00;;;5.90;;
595;SDS011;19946;49.306;11.350;2023-08-30T00:39:09;6.67;;;6.57;;
595;SDS011;19946;49.306;11.350;2023-08-30T00:42:10;6.40;;;6.30;;
595;SDS011;19946;49.306;11.350;2023-08-30T00:45:10;7.00;;;6.90;;
595;SDS011;19946;49.306;11.350;2023-08-30T00:48:11;8.50;;;8.40;;
595;SDS011;19946;49.306;11.350;2023-08-30T00:51:11;7.23;;;7.13;;
595;SDS011;19946;49.306;11.350;2023-08-30T00:54:12;6.97;;;6.87;;
595;SDS011;19946;49.306;11.350;2023-08-30T00:57:12;5.30;;;5.30;;
595;SDS011;19946;49.306;11.350;2023-08-30T01:00:13;9.17;;;9.07;;
595;SDS011;19946;49.306;11.350;2023-08-30T01:03:14;7.50;;;7.40;;
595;SDS011;19946;49.306;11.350;2023-08-30T01:06:15;9.47;;;9.37;;
595;SDS011;19946;49.306;11.350;2023-08-30T01:09:15;9.40;;;9.30;;
595;SDS011;19946;49.306;11.350;2023-08-30T01:12:17;10.00;;;9.80;;
595;SDS011;19946;49.306;11.350;2023-08-30T01:15:22;11.13;;;10.93;;
595;SDS011;19946;49.306;11.350;2023-08-30T01:18:27;10.90;;;10.70;;
595;SDS011;19946;49.306;11.350;2023-08-30T01:21:35;12.40;;;12.20;;
595;SDS011;19946;49.306;11.350;2023-08-30T01:24:55;8.80;;;8.70;;
595;SDS011;19946;49.306;11.350;2023-08-30T01:28:06;9.40;;;9.30;;
595;SDS011;19946;49.306;11.350;2023-08-30T01:31:08;10.80;;;10.60;;
595;SDS011;19946;49.306;11.350;2023-08-30T01:34:10;12.37;;;12.17;;
595;SDS011;19946;49.306;11.350;2023-08-30T01:37:11;12.20;;;12.00;;
595;SDS011;19946;49.306;11.350;2023-08-30T01:40:14;9.97;;;9.77;;
595;SDS011;19946;49.306;11.350;2023-08-30T01:43:16;8.30;;;8.20;;
595;SDS011;19946;49.306;11.350;2023-08-30T01:46:18;9.53;;;9.40;;
595;SDS011;19946;49.306;11.350;2023-08-30T01:49:19;8.70;;;8.60;;
595;SDS011;19946;49.306;11.350;2023-08-30T01:52:21;11.80;;;11.60;;
595;SDS011;19946;49.306;11.350;2023-08-30T01:55:24;12.23;;;12.03;;
595;SDS011;19946;49.306;11.350;2023-08-30T01:58:26;11.87;;;11.67;;
595;SDS011;19946;49.306;11.350;2023-08-30T02:01:26;11.13;;;10.93;;
595;SDS011;19946;49.306;11.350;2023-08-30T02:04:27;8.73;;;8.63;;
595;SDS011;19946;49.306;11.350;2023-08-30T02:07:39;6.60;;;6.50;;
595;SDS011;19946;49.306;11.350;2023-08-30T02:10:49;7.40;;;7.30;;
595;SDS011;19946;49.306;11.350;2023-08-30T02:13:54;6.70;;;6.60;;
595;SDS011;19946;49.306;11.350;2023-08-30T02:16:57;7.80;;;7.70;;
595;SDS011;19946;49.306;11.350;2023-08-30T02:19:58;11.40;;;11.20;;
595;SDS011;19946;49.306;11.350;2023-08-30T02:22:59;7.83;;;7.73;;
595;SDS011;19946;49.306;11.350;2023-08-30T02:25:59;5.47;;;5.47;;
595;SDS011;19946;49.306;11.350;2023-08-30T02:29:00;4.13;;;4.13;;
595;SDS011;19946;49.306;11.350;2023-08-30T02:32:00;4.10;;;4.10;;
595;SDS011;19946;49.306;11.350;2023-08-30T02:35:01;4.00;;;4.00;;
595;SDS011;19946;49.306;11.350;2023-08-30T02:38:02;3.30;;;3.30;;
595;SDS011;19946;49.306;11.350;2023-08-30T02:41:04;3.10;;;3.10;;
595;SDS011;19946;49.306;11.350;2023-08-30T02:44:05;2.90;;;2.90;;
595;SDS011;19946;49.306;11.350;2023-08-30T02:47:08;3.20;;;3.20;;
595;SDS011;19946;49.306;11.350;2023-08-30T02:50:08;3.63;;;3.63;;
595;SDS011;19946;49.306;11.350;2023-08-30T02:53:09;4.80;;;4.80;;
595;SDS011;19946;49.306;11.350;2023-08-30T02:56:09;5.27;;;5.27;;
595;SDS011;19946;49.306;11.350;2023-08-30T02:59:11;4.60;;;4.60;;
595;SDS011;19946;49.306;11.350;2023-08-30T03:02:12;5.00;;;5.00;;
595;SDS011;19946;49.306;11.350;2023-08-30T03:05:13;4.50;;;4.50;;
595;SDS011;19946;49.306;11.350;2023-08-30T03:08:13;8.10;;;8.00;;
595;SDS011;19946;49.306;11.350;2023-08-30T03:11:14;6.40;;;6.30;;
595;SDS011;19946;49.306;11.350;2023-08-30T03:14:25;4.30;;;4.30;;
595;SDS011;19946;49.306;11.350;2023-08-30T03:17:25;5.23;;;5.23;;
595;SDS011;19946;49.306;11.350;2023-08-30T03:20:25;7.00;;;6.90;;
595;SDS011;19946;49.306;11.350;2023-08-30T03:23:29;6.80;;;6.70;;
595;SDS011;19946;49.306;11.350;2023-08-30T03:26:31;5.80;;;5.73;;
595;SDS011;19946;49.306;11.350;2023-08-30T03:29:32;6.50;;;6.40;;
595;SDS011;19946;49.306;11.350;2023-08-30T03:32:33;7.37;;;7.27;;
595;SDS011;19946;49.306;11.350;2023-08-30T03:35:34;8.73;;;8.63;;
595;SDS011;19946;49.306;11.350;2023-08-30T03:38:35;8.83;;;8.73;;
595;SDS011;19946;49.306;11.350;2023-08-30T03:41:35;6.60;;;6.50;;
595;SDS011;19946;49.306;11.350;2023-08-30T03:44:37;10.00;;;9.80;;
595;SDS011;19946;49.306;11.350;2023-08-30T03:47:38;9.03;;;8.93;;
595;SDS011;19946;49.306;11.350;2023-08-30T03:50:38;10.90;;;10.70;;
595;SDS011;19946;49.306;11.350;2023-08-30T03:53:40;10.27;;;10.07;;
595;SDS011;19946;49.306;11.350;2023-08-30T03:56:40;9.50;;;9.40;;
595;SDS011;19946;49.306;11.350;2023-08-30T03:59:41;11.00;;;10.80;;
595;SDS011;19946;49.306;11.350;2023-08-30T04:02:41;9.40;;;9.30;;
595;SDS011;19946;49.306;11.350;2023-08-30T04:05:42;8.20;;;8.10;;
595;SDS011;19946;49.306;11.350;2023-08-30T04:08:42;8.30;;;8.20;;
595;SDS011;19946;49.306;11.350;2023-08-30T04:11:43;13.00;;;12.70;;
595;SDS011;19946;49.306;11.350;2023-08-30T04:14:44;11.10;;;10.90;;
595;SDS011;19946;49.306;11.350;2023-08-30T04:17:44;6.60;;;6.50;;
595;SDS011;19946;49.306;11.350;2023-08-30T04:20:45;5.23;;;5.23;;
595;SDS011;19946;49.306;11.350;2023-08-30T04:23:46;3.73;;;3.73;;
595;SDS011;19946;49.306;11.350;2023-08-30T04:26:47;5.00;;;5.00;;
595;SDS011;19946;49.306;11.350;2023-08-30T04:29:52;4.80;;;4.80;;
595;SDS011;19946;49.306;11.350;2023-08-30T04:32:52;7.17;;;7.07;;
595;SDS011;19946;49.306;11.350;2023-08-30T04:35:53;6.27;;;6.17;;
595;SDS011;19946;49.306;11.350;2023-08-30T04:38:54;8.20;;;8.10;;
595;SDS011;19946;49.306;11.350;2023-08-30T04:41:54;7.80;;;7.70;;
595;SDS011;19946;49.306;11.350;2023-08-30T04:44:55;7.97;;;7.87;;
595;SDS011;19946;49.306;11.350;2023-08-30T04:47:57;10.10;;;9.90;;
595;SDS011;19946;49.306;11.350;2023-08-30T04:51:01;8.70;;;8.60;;
595;SDS011;19946;49.306;11.350;2023-08-30T04:54:05;8.53;;;8.43;;
595;SDS011;19946;49.306;11.350;2023-08-30T04:57:06;8.70;;;8.60;;
595;SDS011;19946;49.306;11.350;2023-08-30T05:00:07;8.90;;;8.80;;
595;SDS011;19946;49.306;11.350;2023-08-30T05:03:08;7.13;;;7.03;;
595;SDS011;19946;49.306;11.350;2023-08-30T05:06:09;7.93;;;7.83;;
595;SDS011;19946;49.306;11.350;2023-08-30T05:09:09;8.57;;;8.47;;
595;SDS011;19946;49.306;11.350;2023-08-30T05:12:10;7.50;;;7.40;;
595;SDS011;19946;49.306;11.350;2023-08-30T05:15:10;11.87;;;11.67;;
595;SDS011;19946;49.306;11.350;2023-08-30T05:18:10;11.80;;;11.60;;
595;SDS011;19946;49.306;11.350;2023-08-30T05:21:11;10.30;;;10.10;;
595;SDS011;19946;49.306;11.350;2023-08-30T05:24:12;7.33;;;7.23;;
595;SDS011;19946;49.306;11.350;2023-08-30T05:27:12;6.20;;;6.10;;
595;SDS011;19946;49.306;11.350;2023-08-30T05:30:14;7.50;;;7.40;;
595;SDS011;19946;49.306;11.350;2023-08-30T05:33:15;6.20;;;6.10;;
595;SDS011;19946;49.306;11.350;2023-08-30T05:36:22;6.30;;;6.20;;
595;SDS011;19946;49.306;11.350;2023-08-30T05:39:35;7.20;;;7.10;;
595;SDS011;19946;49.306;11.350;2023-08-30T05:42:35;8.20;;;8.10;;
595;SDS011;19946;49.306;11.350;2023-08-30T05:45:35;7.90;;;7.80;;
595;SDS011;19946;49.306;11.350;2023-08-30T05:48:36;9.30;;;9.20;;
595;SDS011;19946;49.306;11.350;2023-08-30T05:51:37;8.20;;;8.10;;
595;SDS011;19946;49.306;11.350;2023-08-30T05:54:37;11.30;;;11.10;;
595;SDS011;19946;49.306;11.350;2023-08-30T05:57:38;11.27;;;11.07;;
595;SDS011;19946;49.306;11.350;2023-08-30T06:00:38;11.40;;;11.20;;
595;SDS011;19946;49.306;11.350;2023-08-30T06:03:38;10.57;;;10.37;;
595;SDS011;19946;49.306;11.350;2023-08-30T06:06:39;8.97;;;8.87;;
595;SDS011;19946;49.306;11.350;2023-08-30T06:09:39;10.10;;;9.90;;
595;SDS011;19946;49.306;11.350;2023-08-30T06:12:39;11.20;;;11.00;;
595;SDS011;19946;49.306;11.350;2023-08-30T06:15:40;12.10;;;11.90;;
595;SDS011;19946;49.306;11.350;2023-08-30T06:18:40;12.33;;;12.13;;
595;SDS011;19946;49.306;11.350;2023-08-30T06:21:41;7.60;;;7.50;;
595;SDS011;19946;49.306;11.350;2023-08-30T06:24:41;7.93;;;7.83;;
595;SDS011;19946;49.306;11.350;2023-08-30T06:27:43;8.37;;;8.27;;
595;SDS011;19946;49.306;11.350;2023-08-30T06:30:55;6.80;;;6.70;;
595;SDS011;19946;49.306;11.350;2023-08-30T06:33:57;5.30;;;5.30;;
595;SDS011;19946;49.306;11.350;2023-08-30T06:36:57;8.83;;;8.73;;
595;SDS011;19946;49.306;11.350;2023-08-30T06:39:58;6.83;;;6.73;;
595;SDS011;19946;49.306;11.350;2023-08-30T06:42:58;9.83;;;9.63;;
595;SDS011;19946;49.306;11.350;2023-08-30T06:45:59;6.60;;;6.50;;
595;SDS011;19946;49.306;11.350;2023-08-30T06:48:59;6.03;;;5.93;;
595;SDS011;19946;49.306;11.350;2023-08-30T06:52:00;5.67;;;5.67;;
595;SDS011;19946;49.306;11.350;2023-08-30T06:55:03;6.50;;;6.40;;
595;SDS011;19946;49.306;11.350;2023-08-30T06:58:04;9.43;;;9.27;;
595;SDS011;19946;49.306;11.350;2023-08-30T07:01:05;9.20;;;9.10;;
595;SDS011;19946;49.306;11.350;2023-08-30T07:04:05;11.43;;;11.23;;
595;SDS011;19946;49.306;11.350;2023-08-30T07:07:06;11.80;;;11.60;;
595;SDS011;19946;49.306;11.350;2023-08-30T07:10:06;10.10;;;9.90;;
595;SDS011;19946;49.306;11.350;2023-08-30T07:13:06;8.90;;;8.80;;
595;SDS011;19946;49.306;11.350;2023-08-30T07:16:10;8.63;;;8.53;;
595;SDS011;19946;49.306;11.350;2023-08-30T07:19:10;5.23;;;5.23;;
595;SDS011;19946;49.306;11.350;2023-08-30T07:22:11;6.50;;;6.40;;
595;SDS011;19946;49.306;11.350;2023-08-30T07:25:11;4.60;;;4.60;;
595;SDS011;19946;49.306;11.350;2023-08-30T07:28:12;6.30;;;6.20;;
595;SDS011;19946;49.306;11.350;2023-08-30T07:31:13;6.20;;;6.10;;
595;SDS011;19946;49.306;11.350;2023-08-30T07:34:18;7.30;;;7.20;;
595;SDS011;19946;49.306;11.350;2023-08-30T07:37:19;8.23;;;8.13;;
595;SDS011;19946;49.306;11.350;2023-08-30T07:40:20;4.10;;;4.10;;
595;SDS011;19946;49.306;11.350;2023-08-30T07:43:24;4.50;;;4.50;;
595;SDS011;19946;49.306;11.350;2023-08-30T07:46:24;4.60;;;4.60;;
595;SDS011;19946;49.306;11.350;2023-08-30T07:49:25;4.40;;;4.40;;
595;SDS011;19946;49.306;11.350;2023-08-30T07:52:26;3.70;;;3.70;;
595;SDS011;19946;49.306;11.350;2023-08-30T07:55:26;3.20;;;3.20;;
595;SDS011;19946;49.306;11.350;2023-08-30T07:58:26;2.27;;;2.27;;
595;SDS011;19946;49.306;11.350;2023-08-30T08:01:26;2.40;;;2.40;;
595;SDS011;19946;49.306;11.350;2023-08-30T08:04:27;2.20;;;2.20;;
595;SDS011;19946;49.306;11.350;2023-08-30T08:07:27;1.97;;;1.97;;
595;SDS011;19946;49.306;11.350;2023-08-30T08:10:28;1.90;;;1.90;;
595;SDS011;19946;49.306;11.350;2023-08-30T08:13:32;3.30;;;3.30;;
595;SDS011;19946;49.306;11.350;2023-08-30T08:16:32;4.37;;;4.37;;
595;SDS011;19946;49.306;11.350;2023-08-30T08:19:32;2.53;;;2.53;;
595;SDS011;19946;49.306;11.350;2023-08-30T08:22:32;2.70;;;2.70;;
595;SDS011;19946;49.306;11.350;2023-08-30T08:25:33;2.60;;;2.60;;
595;SDS011;19946;49.306;11.350;2023-08-30T08:28:33;3.50;;;3.50;;
595;SDS011;19946;49.306;11.350;2023-08-30T08:31:34;5.43;;;5.43;;
595;SDS011;19946;49.306;11.350;2023-08-30T08:34:35;3.20;;;3.20;;
595;SDS011;19946;49.306;11.350;2023-08-30T08:37:35;4.30;;;4.30;;
595;SDS011;19946;49.306;11.350;2023-08-30T08:40:37;4.20;;;4.20;;
595;SDS011;19946;49.306;11.350;2023-08-30T08:43:39;5.30;;;5.30;;
595;SDS011;19946;49.306;11.350;2023-08-30T08:46:41;6.30;;;6.20;;
595;SDS011;19946;49.306;11.350;2023-08-30T08:49:42;7.30;;;7.20;;
595;SDS011;19946;49.306;11.350;2023-08-30T08:52:43;7.30;;;7.20;;
595;SDS011;19946;49.306;11.350;2023-08-30T08:55:43;7.87;;;7.77;;
595;SDS011;19946;49.306;11.350;2023-08-30T08:58:46;5.60;;;5.60;;
595;SDS011;19946;49.306;11.350;2023-08-30T09:01:47;3.80;;;3.80;;
595;SDS011;19946;49.306;11.350;2023-08-30T09:04:47;4.57;;;4.57;;
595;SDS011;19946;49.306;11.350;2023-08-30T09:07:47;5.20;;;5.20;;
595;SDS011;19946;49.306;11.350;2023-08-30T09:10:53;4.00;;;4.00;;
595;SDS011;19946;49.306;11.350;2023-08-30T09:13:54;4.43;;;4.43;;
595;SDS011;19946;49.306;11.350;2023-08-30T09:16:54;5.40;;;5.40;;
595;SDS011;19946;49.306;11.350;2023-08-30T09:20:05;4.40;;;4.40;;
595;SDS011;19946;49.306;11.350;2023-08-30T09:23:21;3.80;;;3.80;;
595;SDS011;19946;49.306;11.350;2023-08-30T09:26:24;5.60;;;5.60;;
595;SDS011;19946;49.306;11.350;2023-08-30T09:29:25;6.60;;;6.50;;
595;SDS011;19946;49.306;11.350;2023-08-30T09:32:26;7.60;;;7.50;;
595;SDS011;19946;49.306;11.350;2023-08-30T09:35:26;7.60;;;7.50;;
595;SDS011;19946;49.306;11.350;2023-08-30T09:38:26;7.10;;;7.00;;
595;SDS011;19946;49.306;11.350;2023-08-30T09:41:27;8.00;;;7.90;;
595;SDS011;19946;49.306;11.350;2023-08-30T09:44:29;6.63;;;6.53;;
595;SDS011;19946;49.306;11.350;2023-08-30T09:47:30;6.60;;;6.50;;
595;SDS011;19946;49.306;11.350;2023-08-30T09:50:33;6.93;;;6.83;;
595;SDS011;19946;49.306;11.350;2023-08-30T09:53:37;8.20;;;8.10;;
595;SDS011;19946;49.306;11.350;2023-08-30T09:56:42;8.50;;;8.40;;
595;SDS011;19946;49.306;11.350;2023-08-30T09:59:44;8.73;;;8.63;;
595;SDS011;19946;49.306;11.350;2023-08-30T10:02:45;6.70;;;6.60;;
595;SDS011;19946;49.306;11.350;2023-08-30T10:05:45;6.60;;;6.50;;
595;SDS011;19946;49.306;11.350;2023-08-30T10:08:46;7.33;;;7.23;;
595;SDS011;19946;49.306;11.350;2023-08-30T10:11:49;7.60;;;7.50;;
595;SDS011;19946;49.306;11.350;2023-08-30T10:14:49;6.30;;;6.20;;
595;SDS011;19946;49.306;11.350;2023-08-30T10:17:49;7.43;;;7.33;;
595;SDS011;19946;49.306;11.350;2023-08-30T10:20:54;7.40;;;7.30;;
595;SDS011;19946;49.306;11.350;2023-08-30T10:23:55;7.30;;;7.20;;
595;SDS011;19946;49.306;11.350;2023-08-30T10:26:57;7.60;;;7.50;;
595;SDS011;19946;49.306;11.350;2023-08-30T10:29:59;6.60;;;6.50;;
595;SDS011;19946;49.306;11.350;2023-08-30T10:33:11;6.30;;;6.20;;
595;SDS011;19946;49.306;11.350;2023-08-30T10:36:19;5.20;;;5.20;;
595;SDS011;19946;49.306;11.350;2023-08-30T10:39:20;6.30;;;6.20;;
595;SDS011;19946;49.306;11.350;2023-08-30T10:42:32;5.60;;;5.60;;
595;SDS011;19946;49.306;11.350;2023-08-30T10:45:34;5.50;;;5.50;;
595;SDS011;19946;49.306;11.350;2023-08-30T10:48:35;5.17;;;5.17;;
595;SDS011;19946;49.306;11.350;2023-08-30T10:51:39;5.93;;;5.83;;
595;SDS011;19946;49.306;11.350;2023-08-30T10:54:41;6.37;;;6.27;;
595;SDS011;19946;49.306;11.350;2023-08-30T10:57:41;6.60;;;6.50;;
595;SDS011;19946;49.306;11.350;2023-08-30T11:00:46;5.80;;;5.80;;
595;SDS011;19946;49.306;11.350;2023-08-30T11:03:47;5.27;;;5.27;;
595;SDS011;19946;49.306;11.350;2023-08-30T11:06:49;4.80;;;4.80;;
595;SDS011;19946;49.306;11.350;2023-08-30T11:09:51;5.40;;;5.40;;
595;SDS011;19946;49.306;11.350;2023-08-30T11:12:52;5.30;;;5.30;;
595;SDS011;19946;49.306;11.350;2023-08-30T11:15:52;6.90;;;6.80;;
595;SDS011;19946;49.306;11.350;2023-08-30T11:18:53;6.60;;;6.50;;
595;SDS011;19946;49.306;11.350;2023-08-30T11:21:53;5.80;;;5.80;;
595;SDS011;19946;49.306;11.350;2023-08-30T11:24:54;5.90;;;5.80;;
595;SDS011;19946;49.306;11.350;2023-08-30T11:28:01;6.13;;;6.03;;
595;SDS011;19946;49.306;11.350;2023-08-30T11:31:03;6.13;;;6.03;;
595;SDS011;19946;49.306;11.350;2023-08-30T11:34:03;6.50;;;6.40;;
595;SDS011;19946;49.306;11.350;2023-08-30T11:37:03;6.30;;;6.20;;
595;SDS011;19946;49.306;11.350;2023-08-30T11:40:04;6.40;;;6.30;;
595;SDS011;19946;49.306;11.350;2023-08-30T11:43:06;6.60;;;6.50;;
595;SDS011;19946;49.306;11.350;2023-08-30T11:46:07;6.53;;;6.43;;
595;SDS011;19946;49.306;11.350;2023-08-30T11:49:08;6.40;;;6.30;;
595;SDS011;19946;49.306;11.350;2023-08-30T11:52:09;6.20;;;6.10;;
595;SDS011;19946;49.306;11.350;2023-08-30T11:55:09;5.60;;;5.60;;
595;SDS011;19946;49.306;11.350;2023-08-30T11:58:10;5.70;;;5.70;;
595;SDS011;19946;49.306;11.350;2023-08-30T12:01:11;5.67;;;5.67;;
595;SDS011;19946;49.306;11.350;2023-08-30T12:04:12;5.50;;;5.50;;
595;SDS011;19946;49.306;11.350;2023-08-30T12:07:22;6.10;;;6.00;;
595;SDS011;19946;49.306;11.350;2023-08-30T12:10:23;6.00;;;5.90;;
595;SDS011;19946;49.306;11.350;2023-08-30T12:13:24;5.10;;;5.10;;
595;SDS011;19946;49.306;11.350;2023-08-30T12:16:26;5.20;;;5.20;;
595;SDS011;19946;49.306;11.350;2023-08-30T12:19:27;5.87;;;5.80;;
595;SDS011;19946;49.306;11.350;2023-08-30T12:22:38;5.87;;;5.77;;
595;SDS011;19946;49.306;11.350;2023-08-30T12:25:39;5.87;;;5.80;;
595;SDS011;19946;49.306;11.350;2023-08-30T12:28:40;6.10;;;6.00;;
595;SDS011;19946;49.306;11.350;2023-08-30T12:31:44;6.10;;;6.00;;
595;SDS011;19946;49.306;11.350;2023-08-30T12:34:44;5.53;;;5.53;;
595;SDS011;19946;49.306;11.350;2023-08-30T12:37:44;5.40;;;5.40;;
595;SDS011;19946;49.306;11.350;2023-08-30T12:40:45;5.00;;;5.00;;
595;SDS011;19946;49.306;11.350;2023-08-30T12:43:52;4.40;;;4.40;;
595;SDS011;19946;49.306;11.350;2023-08-30T12:46:54;4.37;;;4.37;;
595;SDS011;19946;49.306;11.350;2023-08-30T12:49:54;4.50;;;4.50;;
595;SDS011;19946;49.306;11.350;2023-08-30T12:52:54;4.67;;;4.67;;
595;SDS011;19946;49.306;11.350;2023-08-30T12:55:55;4.40;;;4.40;;
595;SDS011;19946;49.306;11.350;2023-08-30T12:58:55;4.67;;;4.67;;
595;SDS011;19946;49.306;11.350;2023-08-30T13:01:55;4.20;;;4.20;;
595;SDS011;19946;49.306;11.350;2023-08-30T13:04:56;4.30;;;4.30;;
595;SDS011;19946;49.306;11.350;2023-08-30T13:07:56;4.20;;;4.20;;
595;SDS011;19946;49.306;11.350;2023-08-30T13:10:58;4.70;;;4.70;;
595;SDS011;19946;49.306;11.350;2023-08-30T13:13:59;5.00;;;4.97;;
595;SDS011;19946;49.306;11.350;2023-08-30T13:16:59;4.90;;;4.90;;
595;SDS011;19946;49.306;11.350;2023-08-30T13:20:00;4.63;;;4.63;;
595;SDS011;19946;49.306;11.350;2023-08-30T13:23:01;5.00;;;5.00;;
595;SDS011;19946;49.306;11.350;2023-08-30T13:26:03;5.00;;;5.00;;
595;SDS011;19946;49.306;11.350;2023-08-30T13:29:03;5.10;;;5.10;;
595;SDS011;19946;49.306;11.350;2023-08-30T13:32:04;5.00;;;5.00;;
595;SDS011;19946;49.306;11.350;2023-08-30T13:35:04;4.83;;;4.83;;
595;SDS011;19946;49.306;11.350;2023-08-30T13:38:05;5.17;;;5.10;;
595;SDS011;19946;49.306;11.350;2023-08-30T13:41:05;4.87;;;4.87;;
595;SDS011;19946;49.306;11.350;2023-08-30T13:44:06;4.80;;;4.80;;
595;SDS011;19946;49.306;11.350;2023-08-30T13:47:06;4.50;;;4.50;;
595;SDS011;19946;49.306;11.350;2023-08-30T13:50:07;4.80;;;4.80;;
595;SDS011;19946;49.306;11.350;2023-08-30T13:53:07;4.47;;;4.47;;
595;SDS011;19946;49.306;11.350;2023-08-30T13:56:07;4.50;;;4.50;;
595;SDS011;19946;49.306;11.350;2023-08-30T13:59:08;4.37;;;4.37;;
595;SDS011;19946;49.306;11.350;2023-08-30T14:02:08;4.10;;;4.10;;
595;SDS011;19946;49.306;11.350;2023-08-30T14:05:08;3.90;;;3.90;;
595;SDS011;19946;49.306;11.350;2023-08-30T14:08:09;3.90;;;3.90;;
595;SDS011;19946;49.306;11.350;2023-08-30T14:11:09;4.00;;;4.00;;
595;SDS011;19946;49.306;11.350;2023-08-30T14:14:09;4.10;;;4.10;;
595;SDS011;19946;49.306;11.350;2023-08-30T14:17:10;4.10;;;4.10;;
595;SDS011;19946;49.306;11.350;2023-08-30T14:20:11;3.60;;;3.60;;
595;SDS011;19946;49.306;11.350;2023-08-30T14:23:12;3.40;;;3.40;;
595;SDS011;19946;49.306;11.350;2023-08-30T14:26:13;3.87;;;3.87;;
595;SDS011;19946;49.306;11.350;2023-08-30T14:29:13;3.80;;;3.80;;
595;SDS011;19946;49.306;11.350;2023-08-30T14:32:14;4.00;;;4.00;;
595;SDS011;19946;49.306;11.350;2023-08-30T14:35:14;3.87;;;3.87;;
595;SDS011;19946;49.306;11.350;2023-08-30T14:38:14;2.80;;;2.80;;
595;SDS011;19946;49.306;11.350;2023-08-30T14:41:15;2.80;;;2.80;;
595;SDS011;19946;49.306;11.350;2023-08-30T14:44:17;2.90;;;2.90;;
595;SDS011;19946;49.306;11.350;2023-08-30T14:47:17;2.87;;;2.87;;
595;SDS011;19946;49.306;11.350;2023-08-30T14:50:18;2.60;;;2.60;;
595;SDS011;19946;49.306;11.350;2023-08-30T14:53:18;2.50;;;2.50;;
595;SDS011;19946;49.306;11.350;2023-08-30T14:56:19;2.37;;;2.37;;
595;SDS011;19946;49.306;11.350;2023-08-30T14:59:19;1.80;;;1.80;;
595;SDS011;19946;49.306;11.350;2023-08-30T15:02:19;1.80;;;1.80;;
595;SDS011;19946;49.306;11.350;2023-08-30T15:05:20;1.50;;;1.50;;
595;SDS011;19946;49.306;11.350;2023-08-30T15:08:20;1.00;;;1.00;;
595;SDS011;19946;49.306;11.350;2023-08-30T15:11:22;1.10;;;1.10;;
595;SDS011;19946;49.306;11.350;2023-08-30T15:14:23;1.13;;;1.13;;
595;SDS011;19946;49.306;11.350;2023-08-30T15:17:24;1.50;;;1.50;;
595;SDS011;19946;49.306;11.350;2023-08-30T15:20:24;1.30;;;1.30;;
595;SDS011;19946;49.306;11.350;2023-08-30T15:23:25;1.57;;;1.57;;
595;SDS011;19946;49.306;11.350;2023-08-30T15:26:25;1.70;;;1.70;;
595;SDS011;19946;49.306;11.350;2023-08-30T15:29:26;1.50;;;1.50;;
595;SDS011;19946;49.306;11.350;2023-08-30T15:32:26;1.50;;;1.50;;
595;SDS011;19946;49.306;11.350;2023-08-30T15:35:28;1.33;;;1.33;;
595;SDS011;19946;49.306;11.350;2023-08-30T15:38:28;1.50;;;1.50;;
595;SDS011;19946;49.306;11.350;2023-08-30T15:41:29;1.40;;;1.40;;
595;SDS011;19946;49.306;11.350;2023-08-30T15:44:29;1.20;;;1.20;;
595;SDS011;19946;49.306;11.350;2023-08-30T15:47:30;1.30;;;1.30;;
595;SDS011;19946;49.306;11.350;2023-08-30T15:50:31;1.33;;;1.33;;
595;SDS011;19946;49.306;11.350;2023-08-30T15:53:31;1.30;;;1.30;;
595;SDS011;19946;49.306;11.350;2023-08-30T15:56:32;2.00;;;2.00;;
595;SDS011;19946;49.306;11.350;2023-08-30T15:59:32;1.60;;;1.60;;
595;SDS011;19946;49.306;11.350;2023-08-30T16:02:33;1.60;;;1.60;;
595;SDS011;19946;49.306;11.350;2023-08-30T16:05:34;1.70;;;1.70;;
595;SDS011;19946;49.306;11.350;2023-08-30T16:08:34;1.70;;;1.70;;
595;SDS011;19946;49.306;11.350;2023-08-30T16:11:34;1.57;;;1.57;;
595;SDS011;19946;49.306;11.350;2023-08-30T16:14:35;1.40;;;1.40;;
595;SDS011;19946;49.306;11.350;2023-08-30T16:17:35;1.53;;;1.53;;
595;SDS011;19946;49.306;11.350;2023-08-30T16:20:36;1.30;;;1.30;;
595;SDS011;19946;49.306;11.350;2023-08-30T16:23:36;1.50;;;1.50;;
595;SDS011;19946;49.306;11.350;2023-08-30T16:26:37;1.60;;;1.60;;
595;SDS011;19946;49.306;11.350;2023-08-30T16:29:37;1.50;;;1.50;;
595;SDS011;19946;49.306;11.350;2023-08-30T16:32:37;1.50;;;1.50;;
595;SDS011;19946;49.306;11.350;2023-08-30T16:35:38;1.30;;;1.30;;
595;SDS011;19946;49.306;11.350;2023-08-30T16:38:38;1.53;;;1.53;;
595;SDS011;19946;49.306;11.350;2023-08-30T16:41:39;1.40;;;1.40;;
595;SDS011;19946;49.306;11.350;2023-08-30T16:44:39;1.60;;;1.60;;
595;SDS011;19946;49.306;11.350;2023-08-30T16:47:39;1.40;;;1.40;;
595;SDS011;19946;49.306;11.350;2023-08-30T16:50:40;1.70;;;1.70;;
595;SDS011;19946;49.306;11.350;2023-08-30T16:53:40;1.60;;;1.60;;
595;SDS011;19946;49.306;11.350;2023-08-30T16:56:40;1.50;;;1.50;;
595;SDS011;19946;49.306;11.350;2023-08-30T16:59:41;1.20;;;1.20;;
595;SDS011;19946;49.306;11.350;2023-08-30T17:02:41;1.23;;;1.23;;
595;SDS011;19946;49.306;11.350;2023-08-30T17:05:41;1.20;;;1.20;;
595;SDS011;19946;49.306;11.350;2023-08-30T17:08:42;1.10;;;1.10;;
595;SDS011;19946;49.306;11.350;2023-08-30T17:11:42;1.20;;;1.20;;
595;SDS011;19946;49.306;11.350;2023-08-30T17:14:43;1.13;;;1.13;;
595;SDS011;19946;49.306;11.350;2023-08-30T17:17:44;1.20;;;1.20;;
595;SDS011;19946;49.306;11.350;2023-08-30T17:20:44;1.20;;;1.20;;
595;SDS011;19946;49.306;11.350;2023-08-30T17:23:45;1.10;;;1.10;;
595;SDS011;19946;49.306;11.350;2023-08-30T17:26:45;1.20;;;1.20;;
595;SDS011;19946;49.306;11.350;2023-08-30T17:29:46;1.10;;;1.10;;
595;SDS011;19946;49.306;11.350;2023-08-30T17:32:46;1.00;;;1.00;;
595;SDS011;19946;49.306;11.350;2023-08-30T17:35:47;1.00;;;1.00;;
595;SDS011;19946;49.306;11.350;2023-08-30T17:38:47;1.20;;;1.20;;
595;SDS011;19946;49.306;11.350;2023-08-30T17:41:49;1.10;;;1.10;;
595;SDS011;19946;49.306;11.350;2023-08-30T17:44:49;0.93;;;0.93;;
595;SDS011;19946;49.306;11.350;2023-08-30T17:47:51;1.20;;;1.20;;
595;SDS011;19946;49.306;11.350;2023-08-30T17:50:51;1.00;;;1.00;;
595;SDS011;19946;49.306;11.350;2023-08-30T17:53:52;1.10;;;1.10;;
595;SDS011;19946;49.306;11.350;2023-08-30T17:56:53;1.30;;;1.30;;
595;SDS011;19946;49.306;11.350;2023-08-30T17:59:53;1.40;;;1.40;;
595;SDS011;19946;49.306;11.350;2023-08-30T18:02:53;1.40;;;1.40;;
595;SDS011;19946;49.306;11.350;2023-08-30T18:06:00;1.20;;;1.20;;
595;SDS011;19946;49.306;11.350;2023-08-30T18:09:04;1.40;;;1.40;;
595;SDS011;19946;49.306;11.350;2023-08-30T18:12:05;1.10;;;1.10;;
595;SDS011;19946;49.306;11.350;2023-08-30T18:15:07;1.00;;;1.00;;
595;SDS011;19946;49.306;11.350;2023-08-30T18:18:08;1.20;;;1.20;;
595;SDS011;19946;49.306;11.350;2023-08-30T18:21:12;1.00;;;1.00;;
595;SDS011;19946;49.306;11.350;2023-08-30T18:24:20;0.90;;;0.90;;
595;SDS011;19946;49.306;11.350;2023-08-30T18:27:22;1.00;;;1.00;;